Saint Johns, Arizona
Current Conditions -  °F | °C
As of 12:54 PM on Friday 31 Oct 2014 (Local Time) from KSJN Reporting Station
Clear Clear  
Wind Chill: 75°   Ceiling: Unl
Heat Index: 75°   Visibility: 10mi
Dew Point: 39°   Wind: 18mph
Humidity: 27%   Direction: 160°SSE
Pressure: 30.12"   Gusts: NA
Location:  34.51°N, 109.36°W
Report Text: KSJN 311954Z AUTO 16016KT 10SM CLR 24/04 A3012 RMK AO2 PK WND 17026/1911 SLP129 T02390039
Loading
Personal Weather Stations






























Interactive Weather Map
Tropical Storm Tracking
New forecast layout! Learn more

10-Day Weather Forecast

Advertisements
Track Severe Weather on mobile